sensor_id;sensor_type;location;lat;lon;timestamp;P1;durP1;ratioP1;P2;durP2;ratioP2
55114;SDS011;41010;53.252;5.786;2022-12-18T00:02:12;108.88;;;36.78;;
55114;SDS011;41010;53.252;5.786;2022-12-18T00:04:39;128.48;;;39.83;;
55114;SDS011;41010;53.252;5.786;2022-12-18T00:07:07;113.43;;;38.45;;
55114;SDS011;41010;53.252;5.786;2022-12-18T00:09:34;122.32;;;38.63;;
55114;SDS011;41010;53.252;5.786;2022-12-18T00:12:01;106.53;;;36.50;;
55114;SDS011;41010;53.252;5.786;2022-12-18T00:14:30;107.63;;;37.58;;
55114;SDS011;41010;53.252;5.786;2022-12-18T00:16:58;110.72;;;38.47;;
55114;SDS011;41010;53.252;5.786;2022-12-18T00:19:26;112.50;;;36.85;;
55114;SDS011;41010;53.252;5.786;2022-12-18T00:21:53;110.78;;;37.63;;
55114;SDS011;41010;53.252;5.786;2022-12-18T00:24:23;114.95;;;37.80;;
55114;SDS011;41010;53.252;5.786;2022-12-18T00:26:50;117.40;;;37.67;;
55114;SDS011;41010;53.252;5.786;2022-12-18T00:29:17;111.47;;;37.97;;
55114;SDS011;41010;53.252;5.786;2022-12-18T00:31:46;109.35;;;36.67;;
55114;SDS011;41010;53.252;5.786;2022-12-18T00:34:13;112.90;;;38.03;;
55114;SDS011;41010;53.252;5.786;2022-12-18T00:36:41;118.32;;;39.92;;
55114;SDS011;41010;53.252;5.786;2022-12-18T00:39:09;111.45;;;39.97;;
55114;SDS011;41010;53.252;5.786;2022-12-18T00:41:37;107.05;;;36.58;;
55114;SDS011;41010;53.252;5.786;2022-12-18T00:44:22;97.25;;;35.63;;
55114;SDS011;41010;53.252;5.786;2022-12-18T00:46:50;113.03;;;36.70;;
55114;SDS011;41010;53.252;5.786;2022-12-18T00:49:18;107.57;;;35.20;;
55114;SDS011;41010;53.252;5.786;2022-12-18T00:51:46;110.80;;;38.33;;
55114;SDS011;41010;53.252;5.786;2022-12-18T00:54:13;111.60;;;38.63;;
55114;SDS011;41010;53.252;5.786;2022-12-18T00:56:41;110.57;;;38.17;;
55114;SDS011;41010;53.252;5.786;2022-12-18T00:59:08;116.90;;;40.03;;
55114;SDS011;41010;53.252;5.786;2022-12-18T01:01:35;114.68;;;36.80;;
55114;SDS011;41010;53.252;5.786;2022-12-18T01:04:06;108.82;;;38.67;;
55114;SDS011;41010;53.252;5.786;2022-12-18T01:06:33;115.03;;;38.28;;
55114;SDS011;41010;53.252;5.786;2022-12-18T01:09:00;111.38;;;38.55;;
55114;SDS011;41010;53.252;5.786;2022-12-18T01:11:28;108.78;;;37.35;;
55114;SDS011;41010;53.252;5.786;2022-12-18T01:13:55;107.03;;;35.47;;
55114;SDS011;41010;53.252;5.786;2022-12-18T01:16:23;105.70;;;39.10;;
55114;SDS011;41010;53.252;5.786;2022-12-18T01:18:51;98.45;;;36.03;;
55114;SDS011;41010;53.252;5.786;2022-12-18T01:21:20;103.28;;;35.42;;
55114;SDS011;41010;53.252;5.786;2022-12-18T01:23:50;108.95;;;35.53;;
55114;SDS011;41010;53.252;5.786;2022-12-18T01:26:17;94.38;;;33.97;;
55114;SDS011;41010;53.252;5.786;2022-12-18T01:28:44;93.50;;;34.28;;
55114;SDS011;41010;53.252;5.786;2022-12-18T01:31:12;93.18;;;34.20;;
55114;SDS011;41010;53.252;5.786;2022-12-18T01:33:40;87.03;;;32.75;;
55114;SDS011;41010;53.252;5.786;2022-12-18T01:36:07;96.22;;;33.05;;
55114;SDS011;41010;53.252;5.786;2022-12-18T01:38:36;96.18;;;33.83;;
55114;SDS011;41010;53.252;5.786;2022-12-18T01:41:03;93.72;;;32.38;;
55114;SDS011;41010;53.252;5.786;2022-12-18T01:43:41;96.97;;;32.53;;
55114;SDS011;41010;53.252;5.786;2022-12-18T01:46:08;97.50;;;32.63;;
55114;SDS011;41010;53.252;5.786;2022-12-18T01:48:36;100.25;;;33.22;;
55114;SDS011;41010;53.252;5.786;2022-12-18T01:51:03;92.93;;;31.88;;
55114;SDS011;41010;53.252;5.786;2022-12-18T01:53:31;94.35;;;33.13;;
55114;SDS011;41010;53.252;5.786;2022-12-18T01:56:00;98.40;;;34.55;;
55114;SDS011;41010;53.252;5.786;2022-12-18T01:58:27;95.50;;;32.40;;
55114;SDS011;41010;53.252;5.786;2022-12-18T02:00:57;96.25;;;34.25;;
55114;SDS011;41010;53.252;5.786;2022-12-18T02:03:24;89.85;;;32.45;;
55114;SDS011;41010;53.252;5.786;2022-12-18T02:05:53;89.22;;;30.17;;
55114;SDS011;41010;53.252;5.786;2022-12-18T02:08:25;82.70;;;30.48;;
55114;SDS011;41010;53.252;5.786;2022-12-18T02:10:56;91.28;;;32.47;;
55114;SDS011;41010;53.252;5.786;2022-12-18T02:13:32;89.78;;;31.10;;
55114;SDS011;41010;53.252;5.786;2022-12-18T02:16:05;81.88;;;29.13;;
55114;SDS011;41010;53.252;5.786;2022-12-18T02:18:35;84.35;;;29.70;;
55114;SDS011;41010;53.252;5.786;2022-12-18T02:21:07;84.50;;;29.70;;
55114;SDS011;41010;53.252;5.786;2022-12-18T02:23:39;92.78;;;31.65;;
55114;SDS011;41010;53.252;5.786;2022-12-18T02:26:12;88.07;;;31.85;;
55114;SDS011;41010;53.252;5.786;2022-12-18T02:28:42;96.28;;;31.45;;
55114;SDS011;41010;53.252;5.786;2022-12-18T02:31:13;92.97;;;30.95;;
55114;SDS011;41010;53.252;5.786;2022-12-18T02:33:41;83.60;;;30.08;;
55114;SDS011;41010;53.252;5.786;2022-12-18T02:36:10;88.63;;;29.45;;
55114;SDS011;41010;53.252;5.786;2022-12-18T02:38:38;92.45;;;31.48;;
55114;SDS011;41010;53.252;5.786;2022-12-18T02:41:06;88.55;;;30.42;;
55114;SDS011;41010;53.252;5.786;2022-12-18T02:43:35;96.30;;;32.55;;
55114;SDS011;41010;53.252;5.786;2022-12-18T02:48:44;100.45;;;31.27;;
55114;SDS011;41010;53.252;5.786;2022-12-18T02:51:14;99.00;;;33.20;;
55114;SDS011;41010;53.252;5.786;2022-12-18T02:53:45;94.43;;;30.90;;
55114;SDS011;41010;53.252;5.786;2022-12-18T02:56:13;98.28;;;31.23;;
55114;SDS011;41010;53.252;5.786;2022-12-18T02:58:45;88.38;;;29.80;;
55114;SDS011;41010;53.252;5.786;2022-12-18T03:01:15;92.68;;;29.65;;
55114;SDS011;41010;53.252;5.786;2022-12-18T03:03:45;92.60;;;30.60;;
55114;SDS011;41010;53.252;5.786;2022-12-18T03:06:14;87.18;;;29.30;;
55114;SDS011;41010;53.252;5.786;2022-12-18T03:08:46;94.55;;;29.17;;
55114;SDS011;41010;53.252;5.786;2022-12-18T03:11:15;89.93;;;29.65;;
55114;SDS011;41010;53.252;5.786;2022-12-18T03:14:05;89.45;;;28.63;;
55114;SDS011;41010;53.252;5.786;2022-12-18T03:16:33;92.97;;;29.52;;
55114;SDS011;41010;53.252;5.786;2022-12-18T03:19:03;92.97;;;29.38;;
55114;SDS011;41010;53.252;5.786;2022-12-18T03:21:32;94.82;;;29.63;;
55114;SDS011;41010;53.252;5.786;2022-12-18T03:24:00;88.78;;;29.60;;
55114;SDS011;41010;53.252;5.786;2022-12-18T03:26:30;97.68;;;30.10;;
55114;SDS011;41010;53.252;5.786;2022-12-18T03:28:59;90.90;;;28.25;;
55114;SDS011;41010;53.252;5.786;2022-12-18T03:31:28;95.03;;;30.98;;
55114;SDS011;41010;53.252;5.786;2022-12-18T03:33:57;93.00;;;29.45;;
55114;SDS011;41010;53.252;5.786;2022-12-18T03:36:26;83.07;;;27.75;;
55114;SDS011;41010;53.252;5.786;2022-12-18T03:38:53;93.30;;;31.02;;
55114;SDS011;41010;53.252;5.786;2022-12-18T03:41:24;81.15;;;27.92;;
55114;SDS011;41010;53.252;5.786;2022-12-18T03:43:55;99.68;;;30.48;;
55114;SDS011;41010;53.252;5.786;2022-12-18T03:46:26;88.93;;;28.58;;
55114;SDS011;41010;53.252;5.786;2022-12-18T03:48:59;93.82;;;28.45;;
55114;SDS011;41010;53.252;5.786;2022-12-18T03:51:28;86.32;;;28.92;;
55114;SDS011;41010;53.252;5.786;2022-12-18T03:53:59;87.65;;;28.25;;
55114;SDS011;41010;53.252;5.786;2022-12-18T03:56:28;79.75;;;26.95;;
55114;SDS011;41010;53.252;5.786;2022-12-18T03:58:56;89.25;;;27.95;;
55114;SDS011;41010;53.252;5.786;2022-12-18T04:01:26;83.55;;;26.25;;
55114;SDS011;41010;53.252;5.786;2022-12-18T04:03:55;85.47;;;27.23;;
55114;SDS011;41010;53.252;5.786;2022-12-18T04:06:25;90.70;;;30.33;;
55114;SDS011;41010;53.252;5.786;2022-12-18T04:08:52;81.53;;;26.73;;
55114;SDS011;41010;53.252;5.786;2022-12-18T04:11:20;87.50;;;28.40;;
55114;SDS011;41010;53.252;5.786;2022-12-18T04:13:47;89.45;;;26.92;;
55114;SDS011;41010;53.252;5.786;2022-12-18T04:16:14;87.60;;;27.58;;
55114;SDS011;41010;53.252;5.786;2022-12-18T04:18:42;99.35;;;29.10;;
55114;SDS011;41010;53.252;5.786;2022-12-18T04:21:09;95.05;;;28.40;;
55114;SDS011;41010;53.252;5.786;2022-12-18T04:23:38;90.63;;;28.02;;
55114;SDS011;41010;53.252;5.786;2022-12-18T04:26:05;87.40;;;27.50;;
55114;SDS011;41010;53.252;5.786;2022-12-18T04:28:33;95.65;;;29.25;;
55114;SDS011;41010;53.252;5.786;2022-12-18T04:31:00;89.20;;;29.17;;
55114;SDS011;41010;53.252;5.786;2022-12-18T04:33:27;83.80;;;27.80;;
55114;SDS011;41010;53.252;5.786;2022-12-18T04:35:55;85.22;;;28.75;;
55114;SDS011;41010;53.252;5.786;2022-12-18T04:38:22;84.40;;;28.00;;
55114;SDS011;41010;53.252;5.786;2022-12-18T04:40:51;95.63;;;28.50;;
55114;SDS011;41010;53.252;5.786;2022-12-18T04:43:18;93.80;;;29.55;;
55114;SDS011;41010;53.252;5.786;2022-12-18T04:45:45;102.10;;;29.17;;
55114;SDS011;41010;53.252;5.786;2022-12-18T04:48:13;97.82;;;31.08;;
55114;SDS011;41010;53.252;5.786;2022-12-18T04:50:40;95.65;;;31.25;;
55114;SDS011;41010;53.252;5.786;2022-12-18T04:53:07;96.22;;;30.08;;
55114;SDS011;41010;53.252;5.786;2022-12-18T04:55:34;88.82;;;29.45;;
55114;SDS011;41010;53.252;5.786;2022-12-18T04:58:03;96.93;;;30.70;;
55114;SDS011;41010;53.252;5.786;2022-12-18T05:00:30;85.03;;;29.77;;
55114;SDS011;41010;53.252;5.786;2022-12-18T05:02:57;86.22;;;29.13;;
55114;SDS011;41010;53.252;5.786;2022-12-18T05:05:27;103.72;;;32.35;;
55114;SDS011;41010;53.252;5.786;2022-12-18T05:07:54;104.00;;;30.95;;
55114;SDS011;41010;53.252;5.786;2022-12-18T05:10:22;98.13;;;30.73;;
55114;SDS011;41010;53.252;5.786;2022-12-18T05:12:49;83.80;;;27.90;;
55114;SDS011;41010;53.252;5.786;2022-12-18T05:15:28;86.22;;;28.80;;
55114;SDS011;41010;53.252;5.786;2022-12-18T05:17:55;90.22;;;29.83;;
55114;SDS011;41010;53.252;5.786;2022-12-18T05:20:23;84.97;;;28.75;;
55114;SDS011;41010;53.252;5.786;2022-12-18T05:22:50;94.15;;;28.23;;
55114;SDS011;41010;53.252;5.786;2022-12-18T05:25:18;97.20;;;30.83;;
55114;SDS011;41010;53.252;5.786;2022-12-18T05:27:45;87.78;;;29.85;;
55114;SDS011;41010;53.252;5.786;2022-12-18T05:30:13;83.10;;;26.65;;
55114;SDS011;41010;53.252;5.786;2022-12-18T05:32:41;96.97;;;29.10;;
55114;SDS011;41010;53.252;5.786;2022-12-18T05:35:10;102.20;;;30.42;;
55114;SDS011;41010;53.252;5.786;2022-12-18T05:37:37;96.63;;;28.92;;
55114;SDS011;41010;53.252;5.786;2022-12-18T05:40:05;81.75;;;27.80;;
55114;SDS011;41010;53.252;5.786;2022-12-18T05:42:32;90.28;;;28.23;;
55114;SDS011;41010;53.252;5.786;2022-12-18T05:45:00;88.43;;;27.63;;
55114;SDS011;41010;53.252;5.786;2022-12-18T05:47:27;92.13;;;29.23;;
55114;SDS011;41010;53.252;5.786;2022-12-18T05:49:56;78.10;;;26.33;;
55114;SDS011;41010;53.252;5.786;2022-12-18T05:52:23;84.63;;;28.00;;
55114;SDS011;41010;53.252;5.786;2022-12-18T05:54:51;72.03;;;25.17;;
55114;SDS011;41010;53.252;5.786;2022-12-18T05:57:18;83.28;;;27.30;;
55114;SDS011;41010;53.252;5.786;2022-12-18T05:59:45;79.03;;;25.48;;
55114;SDS011;41010;53.252;5.786;2022-12-18T06:02:12;78.97;;;26.35;;
55114;SDS011;41010;53.252;5.786;2022-12-18T06:04:39;77.22;;;26.40;;
55114;SDS011;41010;53.252;5.786;2022-12-18T06:07:08;79.65;;;25.83;;
55114;SDS011;41010;53.252;5.786;2022-12-18T06:09:35;70.90;;;24.92;;
55114;SDS011;41010;53.252;5.786;2022-12-18T06:12:03;69.85;;;24.73;;
55114;SDS011;41010;53.252;5.786;2022-12-18T06:14:30;68.78;;;24.17;;
55114;SDS011;41010;53.252;5.786;2022-12-18T06:16:57;86.70;;;26.10;;
55114;SDS011;41010;53.252;5.786;2022-12-18T06:19:25;78.85;;;27.13;;
55114;SDS011;41010;53.252;5.786;2022-12-18T06:21:52;74.93;;;24.20;;
55114;SDS011;41010;53.252;5.786;2022-12-18T06:24:21;78.95;;;24.92;;
55114;SDS011;41010;53.252;5.786;2022-12-18T06:26:48;71.43;;;25.58;;
55114;SDS011;41010;53.252;5.786;2022-12-18T06:29:15;74.38;;;25.30;;
55114;SDS011;41010;53.252;5.786;2022-12-18T06:31:42;73.28;;;24.65;;
55114;SDS011;41010;53.252;5.786;2022-12-18T06:34:09;78.93;;;25.92;;
55114;SDS011;41010;53.252;5.786;2022-12-18T06:36:37;71.65;;;23.92;;
55114;SDS011;41010;53.252;5.786;2022-12-18T06:39:04;69.22;;;23.77;;
55114;SDS011;41010;53.252;5.786;2022-12-18T06:41:33;73.05;;;24.45;;
55114;SDS011;41010;53.252;5.786;2022-12-18T06:44:00;75.22;;;25.77;;
55114;SDS011;41010;53.252;5.786;2022-12-18T06:46:28;65.95;;;24.15;;
55114;SDS011;41010;53.252;5.786;2022-12-18T06:48:55;73.85;;;23.77;;
55114;SDS011;41010;53.252;5.786;2022-12-18T06:51:23;67.90;;;24.17;;
55114;SDS011;41010;53.252;5.786;2022-12-18T06:53:51;61.63;;;21.83;;
55114;SDS011;41010;53.252;5.786;2022-12-18T06:56:18;66.03;;;23.00;;
55114;SDS011;41010;53.252;5.786;2022-12-18T06:58:46;51.13;;;19.95;;
55114;SDS011;41010;53.252;5.786;2022-12-18T07:01:14;64.78;;;21.58;;
55114;SDS011;41010;53.252;5.786;2022-12-18T07:03:41;64.25;;;21.80;;
55114;SDS011;41010;53.252;5.786;2022-12-18T07:06:13;60.30;;;19.98;;
55114;SDS011;41010;53.252;5.786;2022-12-18T07:08:41;62.63;;;21.35;;
55114;SDS011;41010;53.252;5.786;2022-12-18T07:11:08;58.72;;;21.08;;
55114;SDS011;41010;53.252;5.786;2022-12-18T07:13:35;58.08;;;20.90;;
55114;SDS011;41010;53.252;5.786;2022-12-18T07:16:05;58.95;;;20.30;;
55114;SDS011;41010;53.252;5.786;2022-12-18T07:18:32;63.83;;;22.38;;
55114;SDS011;41010;53.252;5.786;2022-12-18T07:21:02;56.63;;;20.33;;
55114;SDS011;41010;53.252;5.786;2022-12-18T07:23:29;57.47;;;19.55;;
55114;SDS011;41010;53.252;5.786;2022-12-18T07:26:00;55.30;;;18.45;;
55114;SDS011;41010;53.252;5.786;2022-12-18T07:28:27;55.55;;;19.33;;
55114;SDS011;41010;53.252;5.786;2022-12-18T07:30:54;49.53;;;17.75;;
55114;SDS011;41010;53.252;5.786;2022-12-18T07:33:23;52.35;;;18.23;;
55114;SDS011;41010;53.252;5.786;2022-12-18T07:35:50;50.47;;;17.15;;
55114;SDS011;41010;53.252;5.786;2022-12-18T07:38:17;47.97;;;17.25;;
55114;SDS011;41010;53.252;5.786;2022-12-18T07:40:44;47.08;;;16.85;;
55114;SDS011;41010;53.252;5.786;2022-12-18T07:43:12;42.75;;;15.82;;
55114;SDS011;41010;53.252;5.786;2022-12-18T07:45:39;48.70;;;16.77;;
55114;SDS011;41010;53.252;5.786;2022-12-18T07:48:06;45.95;;;17.02;;
55114;SDS011;41010;53.252;5.786;2022-12-18T07:50:35;44.55;;;16.35;;
55114;SDS011;41010;53.252;5.786;2022-12-18T07:53:02;43.88;;;16.73;;
55114;SDS011;41010;53.252;5.786;2022-12-18T07:55:30;43.97;;;16.58;;
55114;SDS011;41010;53.252;5.786;2022-12-18T07:58:00;47.13;;;16.05;;
55114;SDS011;41010;53.252;5.786;2022-12-18T08:00:28;49.85;;;16.58;;
55114;SDS011;41010;53.252;5.786;2022-12-18T08:02:55;51.40;;;17.45;;
55114;SDS011;41010;53.252;5.786;2022-12-18T08:05:22;41.85;;;16.27;;
55114;SDS011;41010;53.252;5.786;2022-12-18T08:07:51;41.92;;;17.10;;
55114;SDS011;41010;53.252;5.786;2022-12-18T08:10:18;42.72;;;16.67;;
55114;SDS011;41010;53.252;5.786;2022-12-18T08:12:48;43.38;;;16.35;;
55114;SDS011;41010;53.252;5.786;2022-12-18T08:15:15;50.55;;;17.27;;
55114;SDS011;41010;53.252;5.786;2022-12-18T08:17:43;40.00;;;16.45;;
55114;SDS011;41010;53.252;5.786;2022-12-18T08:20:10;47.65;;;16.10;;
55114;SDS011;41010;53.252;5.786;2022-12-18T08:22:39;41.92;;;16.17;;
55114;SDS011;41010;53.252;5.786;2022-12-18T08:25:08;45.28;;;16.75;;
55114;SDS011;41010;53.252;5.786;2022-12-18T08:27:35;42.63;;;16.65;;
55114;SDS011;41010;53.252;5.786;2022-12-18T08:30:03;46.17;;;15.90;;
55114;SDS011;41010;53.252;5.786;2022-12-18T08:32:30;44.72;;;15.40;;
55114;SDS011;41010;53.252;5.786;2022-12-18T08:34:59;40.00;;;16.13;;
55114;SDS011;41010;53.252;5.786;2022-12-18T08:37:26;37.05;;;15.55;;
55114;SDS011;41010;53.252;5.786;2022-12-18T08:39:53;43.25;;;16.63;;
55114;SDS011;41010;53.252;5.786;2022-12-18T08:42:22;42.00;;;16.20;;
55114;SDS011;41010;53.252;5.786;2022-12-18T08:45:07;38.13;;;14.20;;
55114;SDS011;41010;53.252;5.786;2022-12-18T08:47:35;37.83;;;14.30;;
55114;SDS011;41010;53.252;5.786;2022-12-18T08:50:02;39.20;;;15.07;;
55114;SDS011;41010;53.252;5.786;2022-12-18T08:52:31;33.65;;;15.00;;
55114;SDS011;41010;53.252;5.786;2022-12-18T08:54:58;36.17;;;15.55;;
55114;SDS011;41010;53.252;5.786;2022-12-18T08:57:27;40.70;;;14.60;;
55114;SDS011;41010;53.252;5.786;2022-12-18T08:59:54;39.80;;;14.27;;
55114;SDS011;41010;53.252;5.786;2022-12-18T09:02:21;36.47;;;15.13;;
55114;SDS011;41010;53.252;5.786;2022-12-18T09:04:48;39.75;;;15.60;;
55114;SDS011;41010;53.252;5.786;2022-12-18T09:07:16;34.05;;;13.63;;
55114;SDS011;41010;53.252;5.786;2022-12-18T09:09:43;36.63;;;13.68;;
55114;SDS011;41010;53.252;5.786;2022-12-18T09:12:10;38.10;;;14.50;;
55114;SDS011;41010;53.252;5.786;2022-12-18T09:14:39;34.22;;;14.20;;
55114;SDS011;41010;53.252;5.786;2022-12-18T09:17:06;33.58;;;14.07;;
55114;SDS011;41010;53.252;5.786;2022-12-18T09:19:34;36.47;;;14.30;;
55114;SDS011;41010;53.252;5.786;2022-12-18T09:22:01;32.92;;;13.50;;
55114;SDS011;41010;53.252;5.786;2022-12-18T09:24:28;33.13;;;13.30;;
55114;SDS011;41010;53.252;5.786;2022-12-18T09:26:56;37.33;;;14.20;;
55114;SDS011;41010;53.252;5.786;2022-12-18T09:29:23;35.25;;;13.10;;
55114;SDS011;41010;53.252;5.786;2022-12-18T09:31:52;35.13;;;13.48;;
55114;SDS011;41010;53.252;5.786;2022-12-18T09:34:19;31.67;;;13.50;;
55114;SDS011;41010;53.252;5.786;2022-12-18T09:36:47;31.52;;;13.63;;
55114;SDS011;41010;53.252;5.786;2022-12-18T09:39:14;33.58;;;12.75;;
55114;SDS011;41010;53.252;5.786;2022-12-18T09:41:46;33.45;;;12.88;;
55114;SDS011;41010;53.252;5.786;2022-12-18T09:44:22;31.58;;;13.00;;
55114;SDS011;41010;53.252;5.786;2022-12-18T09:46:53;26.02;;;10.77;;
55114;SDS011;41010;53.252;5.786;2022-12-18T09:49:23;27.00;;;11.23;;
55114;SDS011;41010;53.252;5.786;2022-12-18T09:51:52;30.42;;;12.57;;
55114;SDS011;41010;53.252;5.786;2022-12-18T09:54:22;31.50;;;12.48;;
55114;SDS011;41010;53.252;5.786;2022-12-18T09:56:51;28.83;;;11.98;;
55114;SDS011;41010;53.252;5.786;2022-12-18T09:59:21;33.90;;;11.80;;
55114;SDS011;41010;53.252;5.786;2022-12-18T10:01:49;29.88;;;12.38;;
55114;SDS011;41010;53.252;5.786;2022-12-18T10:04:18;30.60;;;11.50;;
55114;SDS011;41010;53.252;5.786;2022-12-18T10:06:46;28.17;;;12.57;;
55114;SDS011;41010;53.252;5.786;2022-12-18T10:09:20;28.40;;;11.52;;
55114;SDS011;41010;53.252;5.786;2022-12-18T10:11:53;29.20;;;12.23;;
55114;SDS011;41010;53.252;5.786;2022-12-18T10:14:27;25.73;;;11.32;;
55114;SDS011;41010;53.252;5.786;2022-12-18T10:16:57;26.70;;;11.65;;
55114;SDS011;41010;53.252;5.786;2022-12-18T10:19:34;28.42;;;11.85;;
55114;SDS011;41010;53.252;5.786;2022-12-18T10:22:04;26.55;;;10.73;;
55114;SDS011;41010;53.252;5.786;2022-12-18T10:24:37;24.63;;;10.32;;
55114;SDS011;41010;53.252;5.786;2022-12-18T10:27:12;27.63;;;10.15;;
55114;SDS011;41010;53.252;5.786;2022-12-18T10:29:41;26.52;;;10.85;;
55114;SDS011;41010;53.252;5.786;2022-12-18T10:32:09;25.17;;;10.63;;
55114;SDS011;41010;53.252;5.786;2022-12-18T10:34:41;25.90;;;11.30;;
55114;SDS011;41010;53.252;5.786;2022-12-18T10:37:10;33.78;;;10.57;;
55114;SDS011;41010;53.252;5.786;2022-12-18T10:39:39;24.02;;;10.57;;
55114;SDS011;41010;53.252;5.786;2022-12-18T10:42:09;20.95;;;9.77;;
55114;SDS011;41010;53.252;5.786;2022-12-18T10:44:38;22.75;;;10.10;;
55114;SDS011;41010;53.252;5.786;2022-12-18T10:47:06;24.52;;;11.10;;
55114;SDS011;41010;53.252;5.786;2022-12-18T10:49:37;24.10;;;10.55;;
55114;SDS011;41010;53.252;5.786;2022-12-18T10:52:14;20.90;;;9.57;;
55114;SDS011;41010;53.252;5.786;2022-12-18T10:54:45;22.08;;;9.30;;
55114;SDS011;41010;53.252;5.786;2022-12-18T10:57:14;22.63;;;9.80;;
55114;SDS011;41010;53.252;5.786;2022-12-18T10:59:49;20.55;;;9.27;;
55114;SDS011;41010;53.252;5.786;2022-12-18T11:02:24;20.70;;;9.27;;
55114;SDS011;41010;53.252;5.786;2022-12-18T11:04:52;20.58;;;9.82;;
55114;SDS011;41010;53.252;5.786;2022-12-18T11:07:20;17.38;;;7.95;;
55114;SDS011;41010;53.252;5.786;2022-12-18T11:09:59;17.90;;;8.32;;
55114;SDS011;41010;53.252;5.786;2022-12-18T11:12:27;20.90;;;8.48;;
55114;SDS011;41010;53.252;5.786;2022-12-18T11:14:55;16.45;;;7.45;;
55114;SDS011;41010;53.252;5.786;2022-12-18T11:17:25;16.95;;;7.38;;
55114;SDS011;41010;53.252;5.786;2022-12-18T11:19:55;19.08;;;8.25;;
55114;SDS011;41010;53.252;5.786;2022-12-18T11:22:24;16.50;;;7.53;;
55114;SDS011;41010;53.252;5.786;2022-12-18T11:24:53;13.55;;;7.07;;
55114;SDS011;41010;53.252;5.786;2022-12-18T11:27:21;14.75;;;7.00;;
55114;SDS011;41010;53.252;5.786;2022-12-18T11:29:49;14.25;;;7.13;;
55114;SDS011;41010;53.252;5.786;2022-12-18T11:32:25;15.38;;;6.97;;
55114;SDS011;41010;53.252;5.786;2022-12-18T11:34:57;16.90;;;6.88;;
55114;SDS011;41010;53.252;5.786;2022-12-18T11:37:26;15.13;;;6.50;;
55114;SDS011;41010;53.252;5.786;2022-12-18T11:39:54;11.95;;;6.22;;
55114;SDS011;41010;53.252;5.786;2022-12-18T11:42:24;13.27;;;6.07;;
55114;SDS011;41010;53.252;5.786;2022-12-18T11:44:53;12.65;;;6.20;;
55114;SDS011;41010;53.252;5.786;2022-12-18T11:47:24;12.60;;;6.00;;
55114;SDS011;41010;53.252;5.786;2022-12-18T11:49:55;13.93;;;6.88;;
55114;SDS011;41010;53.252;5.786;2022-12-18T11:52:29;12.23;;;6.25;;
55114;SDS011;41010;53.252;5.786;2022-12-18T11:54:59;13.05;;;6.70;;
55114;SDS011;41010;53.252;5.786;2022-12-18T11:57:31;17.10;;;7.20;;
55114;SDS011;41010;53.252;5.786;2022-12-18T12:00:02;13.07;;;6.10;;
55114;SDS011;41010;53.252;5.786;2022-12-18T12:02:38;12.45;;;6.53;;
55114;SDS011;41010;53.252;5.786;2022-12-18T12:05:18;13.32;;;6.28;;
55114;SDS011;41010;53.252;5.786;2022-12-18T12:07:51;14.35;;;5.82;;
55114;SDS011;41010;53.252;5.786;2022-12-18T12:10:25;12.52;;;5.75;;
55114;SDS011;41010;53.252;5.786;2022-12-18T12:12:58;12.35;;;6.05;;
55114;SDS011;41010;53.252;5.786;2022-12-18T12:15:30;11.48;;;5.72;;
55114;SDS011;41010;53.252;5.786;2022-12-18T12:18:05;12.80;;;6.40;;
55114;SDS011;41010;53.252;5.786;2022-12-18T12:20:40;14.85;;;5.85;;
55114;SDS011;41010;53.252;5.786;2022-12-18T12:23:12;9.95;;;5.82;;
55114;SDS011;41010;53.252;5.786;2022-12-18T12:25:43;12.93;;;6.25;;
55114;SDS011;41010;53.252;5.786;2022-12-18T12:28:15;12.27;;;6.22;;
55114;SDS011;41010;53.252;5.786;2022-12-18T12:30:49;13.88;;;6.68;;
55114;SDS011;41010;53.252;5.786;2022-12-18T12:33:22;13.05;;;6.13;;
55114;SDS011;41010;53.252;5.786;2022-12-18T12:35:51;12.82;;;6.30;;
55114;SDS011;41010;53.252;5.786;2022-12-18T12:38:24;10.57;;;5.78;;
55114;SDS011;41010;53.252;5.786;2022-12-18T12:40:52;11.60;;;5.95;;
55114;SDS011;41010;53.252;5.786;2022-12-18T12:43:24;12.73;;;6.22;;
55114;SDS011;41010;53.252;5.786;2022-12-18T12:45:52;12.55;;;5.93;;
55114;SDS011;41010;53.252;5.786;2022-12-18T12:48:23;13.88;;;5.97;;
55114;SDS011;41010;53.252;5.786;2022-12-18T12:50:51;14.13;;;6.57;;
55114;SDS011;41010;53.252;5.786;2022-12-18T12:53:23;12.13;;;6.20;;
55114;SDS011;41010;53.252;5.786;2022-12-18T12:55:52;12.80;;;6.18;;
55114;SDS011;41010;53.252;5.786;2022-12-18T12:58:21;13.52;;;6.50;;
55114;SDS011;41010;53.252;5.786;2022-12-18T13:00:52;13.48;;;6.60;;
55114;SDS011;41010;53.252;5.786;2022-12-18T13:03:24;10.52;;;5.95;;
55114;SDS011;41010;53.252;5.786;2022-12-18T13:05:57;12.40;;;5.80;;
55114;SDS011;41010;53.252;5.786;2022-12-18T13:08:29;12.25;;;6.10;;
55114;SDS011;41010;53.252;5.786;2022-12-18T13:10:56;10.32;;;5.47;;
55114;SDS011;41010;53.252;5.786;2022-12-18T13:13:47;11.45;;;5.70;;
55114;SDS011;41010;53.252;5.786;2022-12-18T13:16:17;13.13;;;6.35;;
55114;SDS011;41010;53.252;5.786;2022-12-18T13:18:48;11.65;;;5.47;;
55114;SDS011;41010;53.252;5.786;2022-12-18T13:21:18;14.20;;;5.75;;
55114;SDS011;41010;53.252;5.786;2022-12-18T13:23:49;12.07;;;5.80;;
55114;SDS011;41010;53.252;5.786;2022-12-18T13:26:32;14.32;;;6.05;;
55114;SDS011;41010;53.252;5.786;2022-12-18T13:29:01;11.38;;;5.75;;
55114;SDS011;41010;53.252;5.786;2022-12-18T13:34:30;9.70;;;5.20;;
55114;SDS011;41010;53.252;5.786;2022-12-18T13:37:34;10.45;;;5.07;;
55114;SDS011;41010;53.252;5.786;2022-12-18T13:39:46;12.75;;;5.55;;
55114;SDS011;41010;53.252;5.786;2022-12-18T13:47:54;10.48;;;5.43;;
55114;SDS011;41010;53.252;5.786;2022-12-18T13:50:22;10.27;;;5.13;;
55114;SDS011;41010;53.252;5.786;2022-12-18T13:52:49;11.00;;;5.40;;
55114;SDS011;41010;53.252;5.786;2022-12-18T13:55:19;10.80;;;4.80;;
55114;SDS011;41010;53.252;5.786;2022-12-18T13:57:46;11.80;;;5.30;;
55114;SDS011;41010;53.252;5.786;2022-12-18T14:00:22;10.32;;;5.07;;
55114;SDS011;41010;53.252;5.786;2022-12-18T14:02:51;10.18;;;5.03;;
55114;SDS011;41010;53.252;5.786;2022-12-18T14:05:21;11.52;;;5.05;;
55114;SDS011;41010;53.252;5.786;2022-12-18T14:07:48;10.80;;;5.25;;
55114;SDS011;41010;53.252;5.786;2022-12-18T14:10:16;9.00;;;5.00;;
55114;SDS011;41010;53.252;5.786;2022-12-18T14:12:46;10.27;;;4.97;;
55114;SDS011;41010;53.252;5.786;2022-12-18T14:15:24;10.43;;;5.40;;
55114;SDS011;41010;53.252;5.786;2022-12-18T14:17:54;9.85;;;4.78;;
55114;SDS011;41010;53.252;5.786;2022-12-18T14:20:22;8.00;;;4.68;;
55114;SDS011;41010;53.252;5.786;2022-12-18T14:22:49;9.18;;;4.82;;
55114;SDS011;41010;53.252;5.786;2022-12-18T14:25:18;11.43;;;5.30;;
55114;SDS011;41010;53.252;5.786;2022-12-18T14:27:47;9.07;;;4.68;;
55114;SDS011;41010;53.252;5.786;2022-12-18T14:33:03;8.93;;;4.82;;
55114;SDS011;41010;53.252;5.786;2022-12-18T14:35:31;10.23;;;5.07;;
55114;SDS011;41010;53.252;5.786;2022-12-18T14:38:15;12.02;;;4.53;;
55114;SDS011;41010;53.252;5.786;2022-12-18T14:40:44;10.68;;;4.85;;
55114;SDS011;41010;53.252;5.786;2022-12-18T14:43:13;9.07;;;3.63;;
55114;SDS011;41010;53.252;5.786;2022-12-18T14:45:40;7.95;;;3.95;;
55114;SDS011;41010;53.252;5.786;2022-12-18T14:48:11;8.98;;;4.18;;
55114;SDS011;41010;53.252;5.786;2022-12-18T14:50:40;8.27;;;4.57;;